Map

Track Data

SID SEASON NUMBER BASIN SUBBASIN NAME ISO_TIME NATURE LAT LON WMO_WIND WMO_PRES WMO_AGENCY TRACK_TYPE DIST2LAND LANDFALL IFLAG USA_AGENCY USA_ATCF_ID USA_LAT USA_LON USA_RECORD USA_STATUS USA_WIND USA_PRES USA_SSHS USA_R34_NE USA_R34_SE USA_R34_SW USA_R34_NW USA_R50_NE USA_R50_SE USA_R50_SW USA_R50_NW USA_R64_NE USA_R64_SE USA_R64_SW USA_R64_NW USA_POCI USA_ROCI USA_RMW USA_EYE TOKYO_LAT TOKYO_LON TOKYO_GRADE TOKYO_WIND TOKYO_PRES TOKYO_R50_DIR TOKYO_R50_LONG TOKYO_R50_SHORT TOKYO_R30_DIR TOKYO_R30_LONG TOKYO_R30_SHORT TOKYO_LAND CMA_LAT CMA_LON CMA_CAT CMA_WIND CMA_PRES HKO_LAT HKO_LON HKO_CAT HKO_WIND HKO_PRES NEWDELHI_LAT NEWDELHI_LON NEWDELHI_GRADE NEWDELHI_WIND NEWDELHI_PRES NEWDELHI_CI NEWDELHI_DP NEWDELHI_POCI REUNION_LAT REUNION_LON REUNION_TYPE REUNION_WIND REUNION_PRES REUNION_TNUM REUNION_CI REUNION_RMW REUNION_R34_NE REUNION_R34_SE REUNION_R34_SW REUNION_R34_NW REUNION_R50_NE REUNION_R50_SE REUNION_R50_SW REUNION_R50_NW REUNION_R64_NE REUNION_R64_SE REUNION_R64_SW REUNION_R64_NW BOM_LAT BOM_LON BOM_TYPE BOM_WIND BOM_PRES BOM_TNUM BOM_CI BOM_RMW BOM_R34_NE BOM_R34_SE BOM_R34_SW BOM_R34_NW BOM_R50_NE BOM_R50_SE BOM_R50_SW BOM_R50_NW BOM_R64_NE BOM_R64_SE BOM_R64_SW BOM_R64_NW BOM_ROCI BOM_POCI BOM_EYE BOM_POS_METHOD BOM_PRES_METHOD NADI_LAT NADI_LON NADI_CAT NADI_WIND NADI_PRES WELLINGTON_LAT WELLINGTON_LON WELLINGTON_WIND WELLINGTON_PRES DS824_LAT DS824_LON DS824_STAGE DS824_WIND DS824_PRES TD9636_LAT TD9636_LON TD9636_STAGE TD9636_WIND TD9636_PRES TD9635_LAT TD9635_LON TD9635_WIND TD9635_PRES TD9635_ROCI NEUMANN_LAT NEUMANN_LON NEUMANN_CLASS NEUMANN_WIND NEUMANN_PRES MLC_LAT MLC_LON MLC_CLASS MLC_WIND MLC_PRES USA_GUST BOM_GUST BOM_GUST_PER REUNION_GUST REUNION_GUST_PER USA_SEAHGT USA_SEARAD_NE USA_SEARAD_SE USA_SEARAD_SW USA_SEARAD_NW STORM_SPEED STORM_DIR
1896332N11299 1896 48 NA CS NOT_NAMED 1896-11-27 00:00:00 TS 10.9000 -61.1000 35 hurdat_atl main 22 22 O_____________ hurdat_atl AL071896 10.9000 -61.1000 TS 35 0 4 329
1896332N11299 1896 48 NA CS NOT_NAMED 1896-11-27 03:00:00 TS 11.0550 -61.2000 main 44 44 P_____________ AL071896 11.0550 -61.2000 TS 35 0 4 327
1896332N11299 1896 48 NA CS NOT_NAMED 1896-11-27 06:00:00 TS 11.2000 -61.3000 35 hurdat_atl main 56 56 O_____________ hurdat_atl AL071896 11.2000 -61.3000 TS 35 0 3 325
1896332N11299 1896 48 NA CS NOT_NAMED 1896-11-27 09:00:00 TS 11.3350 -61.4000 main 67 67 P_____________ AL071896 11.3350 -61.4000 TS 37 0 4 327
1896332N11299 1896 48 NA CS NOT_NAMED 1896-11-27 12:00:00 TS 11.5000 -61.5000 40 hurdat_atl main 89 89 O_____________ hurdat_atl AL071896 11.5000 -61.5000 TS 40 0 4 332
1896332N11299 1896 48 NA CS NOT_NAMED 1896-11-27 15:00:00 TS 11.7200 -61.6075 main 111 111 P_____________ AL071896 11.7200 -61.6075 TS 40 0 5 339
1896332N11299 1896 48 NA CS NOT_NAMED 1896-11-27 18:00:00 TS 12.0000 -61.7000 40 hurdat_atl main 145 145 O_____________ hurdat_atl AL071896 12.0000 -61.7000 TS 40 0 6 346
1896332N11299 1896 48 NA CS NOT_NAMED 1896-11-27 21:00:00 TS 12.3350 -61.7575 main 179 179 P_____________ AL071896 12.3350 -61.7575 TS 42 0 7 352
1896332N11299 1896 48 NA CS NOT_NAMED 1896-11-28 00:00:00 TS 12.7000 -61.8000 45 hurdat_atl main 224 224 O_____________ hurdat_atl AL071896 12.7000 -61.8000 TS 45 0 7 353
1896332N11299 1896 48 NA CS NOT_NAMED 1896-11-28 03:00:00 TS 13.0575 -61.8500 main 268 269 P_____________ AL071896 13.0575 -61.8500 TS 45 0 7 352
1896332N11299 1896 48 NA CS NOT_NAMED 1896-11-28 06:00:00 TS 13.4000 -61.9000 45 hurdat_atl main 303 303 O_____________ hurdat_atl AL071896 13.4000 -61.9000 TS 45 0 6 352
1896332N11299 1896 48 NA CS NOT_NAMED 1896-11-28 09:00:00 TS 13.6850 -61.9426 main 336 336 P_____________ AL071896 13.6850 -61.9426 TS 47 0 6 351
1896332N11299 1896 48 NA CS NOT_NAMED 1896-11-28 12:00:00 TS 14.0000 -62.0000 50 hurdat_atl main 370 370 O_____________ hurdat_atl AL071896 14.0000 -62.0000 TS 50 0 7 348
1896332N11299 1896 48 NA CS NOT_NAMED 1896-11-28 15:00:00 TS 14.4125 -62.0999 main 414 414 P_____________ AL071896 14.4125 -62.0999 TS 50 0 9 348
1896332N11299 1896 48 NA CS NOT_NAMED 1896-11-28 18:00:00 TS 14.9000 -62.2000 50 hurdat_atl main 470 470 O_____________ hurdat_atl AL071896 14.9000 -62.2000 TS 50 0 10 351
1896332N11299 1896 48 NA CS NOT_NAMED 1896-11-28 21:00:00 TS 15.4425 -62.2576 main 470 428 P_____________ AL071896 15.4425 -62.2576 TS 50 0 11 355
1896332N11299 1896 48 NA CS NOT_NAMED 1896-11-29 00:00:00 TS 16.0000 -62.3000 50 hurdat_atl main 428 398 O_____________ hurdat_atl AL071896 16.0000 -62.3000 TS 50 0 11 355
1896332N11299 1896 48 NA CS NOT_NAMED 1896-11-29 03:00:00 TS 16.5075 -62.3500 main 389 364 P_____________ AL071896 16.5075 -62.3500 TS 50 0 10 354
1896332N11299 1896 48 NA CS NOT_NAMED 1896-11-29 06:00:00 TS 17.0000 -62.4000 50 hurdat_atl main 364 340 O_____________ hurdat_atl AL071896 17.0000 -62.4000 TS 50 0 10 353
1896332N11299 1896 48 NA CS NOT_NAMED 1896-11-29 09:00:00 TS 17.4550 -62.4723 main 337 328 P_____________ AL071896 17.4550 -62.4723 TS 45 0 10 354
1896332N11299 1896 48 NA CS NOT_NAMED 1896-11-29 12:00:00 TS 18.0000 -62.5000 40 hurdat_atl main 328 327 O_____________ hurdat_atl AL071896 18.0000 -62.5000 TS 40 0 13 2
1896332N11299 1896 48 NA NA NOT_NAMED 1896-11-29 15:00:00 TS 18.7400 -62.4305 main 339 339 P_____________ AL071896 18.7400 -62.4305 TS 37 0 16 7
1896332N11299 1896 48 NA NA NOT_NAMED 1896-11-29 18:00:00 TS 19.6000 -62.3000 35 hurdat_atl main 372 O_____________ hurdat_atl AL071896 19.6000 -62.3000 TS 35 0 17 8

About IBTrACS Database

This database is a web-friendly format of International Best Track Archive for Climate Stewardship (IBTrACS), a global best track data archive curated by NOAA dating back to 1842.

Updated: 2021-12-08